sensor_id;sensor_type;location;lat;lon;timestamp;temperature;humidity
851;DHT22;412;51.400;7.480;2024-03-08T00:01:15;7.70;93.90
851;DHT22;412;51.400;7.480;2024-03-08T00:03:42;7.70;92.70
851;DHT22;412;51.400;7.480;2024-03-08T00:06:08;7.70;93.00
851;DHT22;412;51.400;7.480;2024-03-08T00:08:34;7.70;93.10
851;DHT22;412;51.400;7.480;2024-03-08T00:11:00;7.70;96.20
851;DHT22;412;51.400;7.480;2024-03-08T00:13:25;7.80;95.10
851;DHT22;412;51.400;7.480;2024-03-08T00:15:51;7.80;94.70
851;DHT22;412;51.400;7.480;2024-03-08T00:18:17;7.80;94.00
851;DHT22;412;51.400;7.480;2024-03-08T00:20:43;7.80;94.50
851;DHT22;412;51.400;7.480;2024-03-08T00:23:10;7.80;94.70
851;DHT22;412;51.400;7.480;2024-03-08T00:25:36;7.70;94.60
851;DHT22;412;51.400;7.480;2024-03-08T00:28:02;7.80;95.30
851;DHT22;412;51.400;7.480;2024-03-08T00:30:30;7.80;95.50
851;DHT22;412;51.400;7.480;2024-03-08T00:32:56;7.90;94.20
851;DHT22;412;51.400;7.480;2024-03-08T00:35:22;7.90;92.90
851;DHT22;412;51.400;7.480;2024-03-08T00:37:48;8.00;92.80
851;DHT22;412;51.400;7.480;2024-03-08T00:40:14;7.90;94.20
851;DHT22;412;51.400;7.480;2024-03-08T00:42:40;7.90;96.90
851;DHT22;412;51.400;7.480;2024-03-08T00:45:07;8.00;95.90
851;DHT22;412;51.400;7.480;2024-03-08T00:47:33;8.00;93.40
851;DHT22;412;51.400;7.480;2024-03-08T00:49:59;7.90;93.70
851;DHT22;412;51.400;7.480;2024-03-08T00:52:24;7.90;95.30
851;DHT22;412;51.400;7.480;2024-03-08T00:54:50;7.90;93.40
851;DHT22;412;51.400;7.480;2024-03-08T00:57:16;7.90;92.70
851;DHT22;412;51.400;7.480;2024-03-08T00:59:42;7.80;92.60
851;DHT22;412;51.400;7.480;2024-03-08T01:02:07;7.70;92.40
851;DHT22;412;51.400;7.480;2024-03-08T01:04:36;7.60;91.90
851;DHT22;412;51.400;7.480;2024-03-08T01:07:02;7.60;92.50
851;DHT22;412;51.400;7.480;2024-03-08T01:09:28;7.50;93.30
851;DHT22;412;51.400;7.480;2024-03-08T01:11:54;7.60;94.20
851;DHT22;412;51.400;7.480;2024-03-08T01:14:21;7.60;93.30
851;DHT22;412;51.400;7.480;2024-03-08T01:16:54;7.60;92.70
851;DHT22;412;51.400;7.480;2024-03-08T01:19:20;7.50;93.40
851;DHT22;412;51.400;7.480;2024-03-08T01:21:46;7.40;92.90
851;DHT22;412;51.400;7.480;2024-03-08T01:24:12;7.40;92.40
851;DHT22;412;51.400;7.480;2024-03-08T01:26:38;7.30;92.20
851;DHT22;412;51.400;7.480;2024-03-08T01:29:04;7.30;93.00
851;DHT22;412;51.400;7.480;2024-03-08T01:31:30;7.30;95.40
851;DHT22;412;51.400;7.480;2024-03-08T01:33:57;7.30;94.40
851;DHT22;412;51.400;7.480;2024-03-08T01:36:23;7.20;94.30
851;DHT22;412;51.400;7.480;2024-03-08T01:38:48;7.20;95.20
851;DHT22;412;51.400;7.480;2024-03-08T01:41:15;7.30;96.20
851;DHT22;412;51.400;7.480;2024-03-08T01:43:43;7.30;95.00
851;DHT22;412;51.400;7.480;2024-03-08T01:46:11;7.40;94.00
851;DHT22;412;51.400;7.480;2024-03-08T01:48:38;7.20;95.00
851;DHT22;412;51.400;7.480;2024-03-08T01:51:04;7.20;94.70
851;DHT22;412;51.400;7.480;2024-03-08T01:53:31;7.30;95.10
851;DHT22;412;51.400;7.480;2024-03-08T01:55:58;7.30;96.00
851;DHT22;412;51.400;7.480;2024-03-08T01:58:27;7.20;97.20
851;DHT22;412;51.400;7.480;2024-03-08T02:00:54;7.20;94.90
851;DHT22;412;51.400;7.480;2024-03-08T02:03:21;7.20;94.30
851;DHT22;412;51.400;7.480;2024-03-08T02:05:47;7.20;94.10
851;DHT22;412;51.400;7.480;2024-03-08T02:08:14;7.20;95.10
851;DHT22;412;51.400;7.480;2024-03-08T02:10:49;7.30;95.30
851;DHT22;412;51.400;7.480;2024-03-08T02:13:15;7.20;96.20
851;DHT22;412;51.400;7.480;2024-03-08T02:18:23;7.20;94.80
851;DHT22;412;51.400;7.480;2024-03-08T02:20:55;7.30;95.00
851;DHT22;412;51.400;7.480;2024-03-08T02:23:22;7.30;96.10
851;DHT22;412;51.400;7.480;2024-03-08T02:25:49;7.30;96.10
851;DHT22;412;51.400;7.480;2024-03-08T02:28:15;7.30;94.80
851;DHT22;412;51.400;7.480;2024-03-08T02:30:41;7.20;94.30
851;DHT22;412;51.400;7.480;2024-03-08T02:33:07;7.20;95.00
851;DHT22;412;51.400;7.480;2024-03-08T02:35:35;7.10;95.80
851;DHT22;412;51.400;7.480;2024-03-08T02:38:02;7.10;94.60
851;DHT22;412;51.400;7.480;2024-03-08T02:40:29;7.10;93.90
851;DHT22;412;51.400;7.480;2024-03-08T02:42:55;7.00;95.30
851;DHT22;412;51.400;7.480;2024-03-08T02:45:21;7.00;95.70
851;DHT22;412;51.400;7.480;2024-03-08T02:47:46;6.90;94.70
851;DHT22;412;51.400;7.480;2024-03-08T02:50:15;7.00;95.10
851;DHT22;412;51.400;7.480;2024-03-08T02:52:42;6.90;95.00
851;DHT22;412;51.400;7.480;2024-03-08T02:55:09;6.90;94.80
851;DHT22;412;51.400;7.480;2024-03-08T02:57:36;6.90;94.90
851;DHT22;412;51.400;7.480;2024-03-08T03:00:02;6.80;95.20
851;DHT22;412;51.400;7.480;2024-03-08T03:02:29;6.80;94.80
851;DHT22;412;51.400;7.480;2024-03-08T03:04:55;6.80;94.40
851;DHT22;412;51.400;7.480;2024-03-08T03:07:21;6.80;94.40
851;DHT22;412;51.400;7.480;2024-03-08T03:09:47;6.80;94.80
851;DHT22;412;51.400;7.480;2024-03-08T03:12:13;6.50;94.40
851;DHT22;412;51.400;7.480;2024-03-08T03:14:39;6.50;94.60
851;DHT22;412;51.400;7.480;2024-03-08T03:17:05;6.60;94.60
851;DHT22;412;51.400;7.480;2024-03-08T03:19:31;6.40;94.20
851;DHT22;412;51.400;7.480;2024-03-08T03:21:57;6.20;95.70
851;DHT22;412;51.400;7.480;2024-03-08T03:24:23;5.90;98.50
851;DHT22;412;51.400;7.480;2024-03-08T03:29:15;6.00;97.10
851;DHT22;412;51.400;7.480;2024-03-08T03:31:43;5.80;96.50
851;DHT22;412;51.400;7.480;2024-03-08T03:34:12;5.80;97.70
851;DHT22;412;51.400;7.480;2024-03-08T03:36:38;6.00;98.40
851;DHT22;412;51.400;7.480;2024-03-08T03:39:10;6.00;98.40
851;DHT22;412;51.400;7.480;2024-03-08T03:41:39;6.20;98.70
851;DHT22;412;51.400;7.480;2024-03-08T03:44:07;6.20;97.10
851;DHT22;412;51.400;7.480;2024-03-08T03:46:33;6.20;97.50
851;DHT22;412;51.400;7.480;2024-03-08T03:48:59;6.30;97.20
851;DHT22;412;51.400;7.480;2024-03-08T03:51:25;6.30;97.20
851;DHT22;412;51.400;7.480;2024-03-08T03:53:51;6.20;96.20
851;DHT22;412;51.400;7.480;2024-03-08T03:56:18;6.00;95.40
851;DHT22;412;51.400;7.480;2024-03-08T03:58:44;5.70;96.30
851;DHT22;412;51.400;7.480;2024-03-08T04:01:10;5.60;96.80
851;DHT22;412;51.400;7.480;2024-03-08T04:03:36;5.50;99.90
851;DHT22;412;51.400;7.480;2024-03-08T04:06:04;5.60;99.30
851;DHT22;412;51.400;7.480;2024-03-08T04:08:30;5.70;98.30
851;DHT22;412;51.400;7.480;2024-03-08T04:10:56;5.80;97.30
851;DHT22;412;51.400;7.480;2024-03-08T04:13:23;5.40;97.50
851;DHT22;412;51.400;7.480;2024-03-08T04:15:49;5.30;98.30
851;DHT22;412;51.400;7.480;2024-03-08T04:18:15;5.30;98.20
851;DHT22;412;51.400;7.480;2024-03-08T04:20:40;5.00;98.80
851;DHT22;412;51.400;7.480;2024-03-08T04:23:06;4.70;99.90
851;DHT22;412;51.400;7.480;2024-03-08T04:25:32;4.70;99.90
851;DHT22;412;51.400;7.480;2024-03-08T04:27:58;4.70;99.90
851;DHT22;412;51.400;7.480;2024-03-08T04:30:24;4.80;99.90
851;DHT22;412;51.400;7.480;2024-03-08T04:32:50;4.60;99.90
851;DHT22;412;51.400;7.480;2024-03-08T04:35:17;4.50;99.90
851;DHT22;412;51.400;7.480;2024-03-08T04:37:43;4.40;99.90
851;DHT22;412;51.400;7.480;2024-03-08T04:40:08;4.50;99.90
851;DHT22;412;51.400;7.480;2024-03-08T04:42:35;4.10;99.90
851;DHT22;412;51.400;7.480;2024-03-08T04:45:02;4.10;99.90
851;DHT22;412;51.400;7.480;2024-03-08T04:47:29;4.20;99.90
851;DHT22;412;51.400;7.480;2024-03-08T04:49:55;4.10;99.90
851;DHT22;412;51.400;7.480;2024-03-08T04:52:21;4.10;99.90
851;DHT22;412;51.400;7.480;2024-03-08T04:54:47;4.00;99.90
851;DHT22;412;51.400;7.480;2024-03-08T04:57:13;4.10;99.90
851;DHT22;412;51.400;7.480;2024-03-08T04:59:39;4.00;99.90
851;DHT22;412;51.400;7.480;2024-03-08T05:02:05;4.00;99.90
851;DHT22;412;51.400;7.480;2024-03-08T05:04:32;4.00;99.90
851;DHT22;412;51.400;7.480;2024-03-08T05:06:58;3.90;99.90
851;DHT22;412;51.400;7.480;2024-03-08T05:09:27;3.80;99.90
851;DHT22;412;51.400;7.480;2024-03-08T05:11:54;3.70;99.90
851;DHT22;412;51.400;7.480;2024-03-08T05:14:20;3.70;99.90
851;DHT22;412;51.400;7.480;2024-03-08T05:16:46;3.80;99.90
851;DHT22;412;51.400;7.480;2024-03-08T05:19:14;3.70;99.90
851;DHT22;412;51.400;7.480;2024-03-08T05:21:43;4.00;99.90
851;DHT22;412;51.400;7.480;2024-03-08T05:24:09;4.10;99.90
851;DHT22;412;51.400;7.480;2024-03-08T05:26:36;4.20;99.90
851;DHT22;412;51.400;7.480;2024-03-08T05:29:03;4.30;99.90
851;DHT22;412;51.400;7.480;2024-03-08T05:31:29;4.60;99.90
851;DHT22;412;51.400;7.480;2024-03-08T05:33:56;4.60;99.90
851;DHT22;412;51.400;7.480;2024-03-08T05:36:22;4.80;99.90
851;DHT22;412;51.400;7.480;2024-03-08T05:38:48;4.90;99.90
851;DHT22;412;51.400;7.480;2024-03-08T05:41:16;5.00;99.90
851;DHT22;412;51.400;7.480;2024-03-08T05:43:43;5.10;99.90
851;DHT22;412;51.400;7.480;2024-03-08T05:46:09;5.20;99.90
851;DHT22;412;51.400;7.480;2024-03-08T05:48:37;5.00;99.90
851;DHT22;412;51.400;7.480;2024-03-08T05:51:03;5.00;99.90
851;DHT22;412;51.400;7.480;2024-03-08T05:53:29;5.00;99.90
851;DHT22;412;51.400;7.480;2024-03-08T05:55:58;5.10;99.90
851;DHT22;412;51.400;7.480;2024-03-08T05:58:24;5.30;99.90
851;DHT22;412;51.400;7.480;2024-03-08T06:00:50;5.20;99.90
851;DHT22;412;51.400;7.480;2024-03-08T06:03:16;5.20;99.90
851;DHT22;412;51.400;7.480;2024-03-08T06:05:41;5.30;99.90
851;DHT22;412;51.400;7.480;2024-03-08T06:08:07;5.30;99.80
851;DHT22;412;51.400;7.480;2024-03-08T06:10:33;5.40;99.60
851;DHT22;412;51.400;7.480;2024-03-08T06:12:59;5.50;99.40
851;DHT22;412;51.400;7.480;2024-03-08T06:15:27;5.50;99.30
851;DHT22;412;51.400;7.480;2024-03-08T06:17:52;5.50;99.10
851;DHT22;412;51.400;7.480;2024-03-08T06:20:18;5.60;99.90
851;DHT22;412;51.400;7.480;2024-03-08T06:22:44;5.60;99.50
851;DHT22;412;51.400;7.480;2024-03-08T06:25:13;5.50;99.50
851;DHT22;412;51.400;7.480;2024-03-08T06:27:43;5.60;99.20
851;DHT22;412;51.400;7.480;2024-03-08T06:30:10;5.50;98.90
851;DHT22;412;51.400;7.480;2024-03-08T06:32:36;5.50;98.80
851;DHT22;412;51.400;7.480;2024-03-08T06:35:03;5.50;98.90
851;DHT22;412;51.400;7.480;2024-03-08T06:37:32;5.50;99.00
851;DHT22;412;51.400;7.480;2024-03-08T06:39:58;5.60;98.90
851;DHT22;412;51.400;7.480;2024-03-08T06:42:24;5.60;99.10
851;DHT22;412;51.400;7.480;2024-03-08T06:44:55;5.60;99.00
851;DHT22;412;51.400;7.480;2024-03-08T06:47:25;5.70;99.00
851;DHT22;412;51.400;7.480;2024-03-08T06:49:51;5.70;99.10
851;DHT22;412;51.400;7.480;2024-03-08T06:52:17;5.70;99.10
851;DHT22;412;51.400;7.480;2024-03-08T06:54:43;6.10;99.20
851;DHT22;412;51.400;7.480;2024-03-08T06:57:09;5.80;99.00
851;DHT22;412;51.400;7.480;2024-03-08T06:59:36;6.00;99.20
851;DHT22;412;51.400;7.480;2024-03-08T07:02:02;5.90;98.90
851;DHT22;412;51.400;7.480;2024-03-08T07:04:29;6.00;99.10
851;DHT22;412;51.400;7.480;2024-03-08T07:06:56;6.10;99.90
851;DHT22;412;51.400;7.480;2024-03-08T07:09:23;6.00;99.80
851;DHT22;412;51.400;7.480;2024-03-08T07:11:50;6.10;99.80
851;DHT22;412;51.400;7.480;2024-03-08T07:14:23;6.10;99.10
851;DHT22;412;51.400;7.480;2024-03-08T07:16:49;6.10;99.50
851;DHT22;412;51.400;7.480;2024-03-08T07:19:15;6.20;99.60
851;DHT22;412;51.400;7.480;2024-03-08T07:21:43;6.40;99.90
851;DHT22;412;51.400;7.480;2024-03-08T07:24:10;6.30;99.90
851;DHT22;412;51.400;7.480;2024-03-08T07:26:44;6.30;99.90
851;DHT22;412;51.400;7.480;2024-03-08T07:29:15;6.40;99.90
851;DHT22;412;51.400;7.480;2024-03-08T07:31:41;6.50;99.90
851;DHT22;412;51.400;7.480;2024-03-08T07:34:07;6.60;99.90
851;DHT22;412;51.400;7.480;2024-03-08T07:36:34;6.70;99.90
851;DHT22;412;51.400;7.480;2024-03-08T07:39:01;6.90;99.90
851;DHT22;412;51.400;7.480;2024-03-08T07:41:26;6.70;98.20
851;DHT22;412;51.400;7.480;2024-03-08T07:43:53;6.20;98.30
851;DHT22;412;51.400;7.480;2024-03-08T07:46:18;6.00;99.30
851;DHT22;412;51.400;7.480;2024-03-08T07:48:45;5.90;99.90
851;DHT22;412;51.400;7.480;2024-03-08T07:51:11;6.10;99.90
851;DHT22;412;51.400;7.480;2024-03-08T07:53:38;6.30;99.90
851;DHT22;412;51.400;7.480;2024-03-08T07:56:04;6.40;99.90
851;DHT22;412;51.400;7.480;2024-03-08T07:58:34;6.60;99.90
851;DHT22;412;51.400;7.480;2024-03-08T08:01:00;7.10;99.90
851;DHT22;412;51.400;7.480;2024-03-08T08:03:26;7.80;99.90
851;DHT22;412;51.400;7.480;2024-03-08T08:05:52;8.60;99.90
851;DHT22;412;51.400;7.480;2024-03-08T08:08:19;9.20;99.90
851;DHT22;412;51.400;7.480;2024-03-08T08:10:44;9.80;99.90
851;DHT22;412;51.400;7.480;2024-03-08T08:13:10;10.20;98.90
851;DHT22;412;51.400;7.480;2024-03-08T08:15:36;10.60;98.70
851;DHT22;412;51.400;7.480;2024-03-08T08:18:02;11.10;99.60
851;DHT22;412;51.400;7.480;2024-03-08T08:20:31;11.40;96.90
851;DHT22;412;51.400;7.480;2024-03-08T08:22:57;11.70;94.20
851;DHT22;412;51.400;7.480;2024-03-08T08:25:24;11.80;93.20
851;DHT22;412;51.400;7.480;2024-03-08T08:27:50;12.00;93.30
851;DHT22;412;51.400;7.480;2024-03-08T08:30:16;12.00;90.10
851;DHT22;412;51.400;7.480;2024-03-08T08:32:41;12.20;91.90
851;DHT22;412;51.400;7.480;2024-03-08T08:35:08;12.30;90.90
851;DHT22;412;51.400;7.480;2024-03-08T08:37:41;12.30;87.40
851;DHT22;412;51.400;7.480;2024-03-08T08:40:08;12.20;91.20
851;DHT22;412;51.400;7.480;2024-03-08T08:42:40;12.20;87.50
851;DHT22;412;51.400;7.480;2024-03-08T08:45:06;12.40;89.30
851;DHT22;412;51.400;7.480;2024-03-08T08:47:36;12.40;85.10
851;DHT22;412;51.400;7.480;2024-03-08T08:50:03;12.50;92.40
851;DHT22;412;51.400;7.480;2024-03-08T08:52:31;13.10;97.10
851;DHT22;412;51.400;7.480;2024-03-08T08:54:57;14.00;95.80
851;DHT22;412;51.400;7.480;2024-03-08T08:57:23;14.50;95.70
851;DHT22;412;51.400;7.480;2024-03-08T08:59:49;15.20;93.10
851;DHT22;412;51.400;7.480;2024-03-08T09:02:15;15.20;92.20
851;DHT22;412;51.400;7.480;2024-03-08T09:04:42;15.70;87.50
851;DHT22;412;51.400;7.480;2024-03-08T09:07:09;15.80;89.40
851;DHT22;412;51.400;7.480;2024-03-08T09:09:34;15.60;72.80
851;DHT22;412;51.400;7.480;2024-03-08T09:12:01;15.40;86.60
851;DHT22;412;51.400;7.480;2024-03-08T09:14:27;15.70;88.70
851;DHT22;412;51.400;7.480;2024-03-08T09:16:53;15.30;68.50
851;DHT22;412;51.400;7.480;2024-03-08T09:19:18;13.90;74.90
851;DHT22;412;51.400;7.480;2024-03-08T09:21:45;13.60;91.50
851;DHT22;412;51.400;7.480;2024-03-08T09:24:11;14.30;89.20
851;DHT22;412;51.400;7.480;2024-03-08T09:26:38;14.90;91.40
851;DHT22;412;51.400;7.480;2024-03-08T09:29:06;15.10;75.20
851;DHT22;412;51.400;7.480;2024-03-08T09:31:32;14.70;72.90
851;DHT22;412;51.400;7.480;2024-03-08T09:33:58;14.10;71.80
851;DHT22;412;51.400;7.480;2024-03-08T09:36:24;13.60;73.30
851;DHT22;412;51.400;7.480;2024-03-08T09:38:50;13.20;76.00
851;DHT22;412;51.400;7.480;2024-03-08T09:41:16;13.10;80.60
851;DHT22;412;51.400;7.480;2024-03-08T09:43:43;12.70;78.40
851;DHT22;412;51.400;7.480;2024-03-08T09:46:10;12.60;83.10
851;DHT22;412;51.400;7.480;2024-03-08T09:48:37;12.60;83.00
851;DHT22;412;51.400;7.480;2024-03-08T09:51:04;12.60;82.90
851;DHT22;412;51.400;7.480;2024-03-08T09:53:30;12.70;82.00
851;DHT22;412;51.400;7.480;2024-03-08T09:55:56;12.70;82.60
851;DHT22;412;51.400;7.480;2024-03-08T09:58:22;12.80;80.50
851;DHT22;412;51.400;7.480;2024-03-08T10:01:03;12.80;81.50
851;DHT22;412;51.400;7.480;2024-03-08T10:03:30;12.80;84.00
851;DHT22;412;51.400;7.480;2024-03-08T10:05:58;12.90;81.80
851;DHT22;412;51.400;7.480;2024-03-08T10:08:30;13.00;80.80
851;DHT22;412;51.400;7.480;2024-03-08T10:10:56;13.20;82.30
851;DHT22;412;51.400;7.480;2024-03-08T10:13:26;13.40;79.70
851;DHT22;412;51.400;7.480;2024-03-08T10:15:54;13.50;79.40
851;DHT22;412;51.400;7.480;2024-03-08T10:18:21;13.70;79.80
851;DHT22;412;51.400;7.480;2024-03-08T10:21:06;13.90;80.30
851;DHT22;412;51.400;7.480;2024-03-08T10:23:33;14.10;80.70
851;DHT22;412;51.400;7.480;2024-03-08T10:26:13;14.30;81.80
851;DHT22;412;51.400;7.480;2024-03-08T10:28:48;14.30;76.00
851;DHT22;412;51.400;7.480;2024-03-08T10:31:17;14.30;77.00
851;DHT22;412;51.400;7.480;2024-03-08T10:33:45;14.50;77.80
851;DHT22;412;51.400;7.480;2024-03-08T10:36:13;14.50;77.00
851;DHT22;412;51.400;7.480;2024-03-08T10:38:41;14.60;76.50
851;DHT22;412;51.400;7.480;2024-03-08T10:41:08;14.80;78.50
851;DHT22;412;51.400;7.480;2024-03-08T10:44:23;15.10;78.80
851;DHT22;412;51.400;7.480;2024-03-08T10:49:17;15.00;77.20
851;DHT22;412;51.400;7.480;2024-03-08T10:51:44;15.30;75.90
851;DHT22;412;51.400;7.480;2024-03-08T10:54:10;15.40;73.20
851;DHT22;412;51.400;7.480;2024-03-08T10:56:37;15.70;74.10
851;DHT22;412;51.400;7.480;2024-03-08T10:59:07;15.80;71.70
851;DHT22;412;51.400;7.480;2024-03-08T11:01:34;16.00;72.90
851;DHT22;412;51.400;7.480;2024-03-08T11:03:59;16.30;71.50
851;DHT22;412;51.400;7.480;2024-03-08T11:09:02;16.50;69.80
851;DHT22;412;51.400;7.480;2024-03-08T11:11:33;16.50;69.30
851;DHT22;412;51.400;7.480;2024-03-08T11:14:02;16.50;69.50
851;DHT22;412;51.400;7.480;2024-03-08T11:18:58;16.80;69.30
851;DHT22;412;51.400;7.480;2024-03-08T11:21:30;16.80;66.00
851;DHT22;412;51.400;7.480;2024-03-08T11:24:17;16.90;68.00
851;DHT22;412;51.400;7.480;2024-03-08T11:26:45;17.10;67.00
851;DHT22;412;51.400;7.480;2024-03-08T11:31:53;16.30;57.40
851;DHT22;412;51.400;7.480;2024-03-08T11:34:29;15.90;58.20
851;DHT22;412;51.400;7.480;2024-03-08T11:36:56;15.90;58.10
851;DHT22;412;51.400;7.480;2024-03-08T11:39:22;15.80;57.60
851;DHT22;412;51.400;7.480;2024-03-08T11:41:49;15.70;58.10
851;DHT22;412;51.400;7.480;2024-03-08T11:44:15;15.30;57.60
851;DHT22;412;51.400;7.480;2024-03-08T11:46:42;15.40;59.10
851;DHT22;412;51.400;7.480;2024-03-08T11:49:13;15.20;56.90
851;DHT22;412;51.400;7.480;2024-03-08T11:51:38;15.20;57.60
851;DHT22;412;51.400;7.480;2024-03-08T11:54:04;15.20;57.60
851;DHT22;412;51.400;7.480;2024-03-08T11:56:31;15.30;57.50
851;DHT22;412;51.400;7.480;2024-03-08T11:58:57;15.50;57.10
851;DHT22;412;51.400;7.480;2024-03-08T12:01:24;15.50;56.10
851;DHT22;412;51.400;7.480;2024-03-08T12:03:54;15.50;56.60
851;DHT22;412;51.400;7.480;2024-03-08T12:06:20;15.60;57.00
851;DHT22;412;51.400;7.480;2024-03-08T12:08:47;15.60;56.60
851;DHT22;412;51.400;7.480;2024-03-08T12:11:19;15.60;56.10
851;DHT22;412;51.400;7.480;2024-03-08T12:13:49;15.80;57.00
851;DHT22;412;51.400;7.480;2024-03-08T12:16:17;15.90;56.40
851;DHT22;412;51.400;7.480;2024-03-08T12:18:51;15.80;55.40
851;DHT22;412;51.400;7.480;2024-03-08T12:21:17;15.50;56.40
851;DHT22;412;51.400;7.480;2024-03-08T12:23:46;15.60;56.40
851;DHT22;412;51.400;7.480;2024-03-08T12:26:24;15.60;56.00
851;DHT22;412;51.400;7.480;2024-03-08T12:28:52;15.90;57.60
851;DHT22;412;51.400;7.480;2024-03-08T12:31:19;16.00;56.80
851;DHT22;412;51.400;7.480;2024-03-08T12:33:51;16.00;56.30
851;DHT22;412;51.400;7.480;2024-03-08T12:36:18;15.80;55.70
851;DHT22;412;51.400;7.480;2024-03-08T12:38:47;15.40;55.00
851;DHT22;412;51.400;7.480;2024-03-08T12:41:19;15.30;57.50
851;DHT22;412;51.400;7.480;2024-03-08T12:43:45;15.40;57.00
851;DHT22;412;51.400;7.480;2024-03-08T12:46:18;15.30;57.10
851;DHT22;412;51.400;7.480;2024-03-08T12:48:46;15.30;57.10
851;DHT22;412;51.400;7.480;2024-03-08T12:51:16;15.40;56.70
851;DHT22;412;51.400;7.480;2024-03-08T12:53:43;15.40;57.20
851;DHT22;412;51.400;7.480;2024-03-08T12:56:10;15.10;56.20
851;DHT22;412;51.400;7.480;2024-03-08T12:58:36;15.10;57.80
851;DHT22;412;51.400;7.480;2024-03-08T13:01:03;15.10;57.30
851;DHT22;412;51.400;7.480;2024-03-08T13:03:35;15.00;56.40
851;DHT22;412;51.400;7.480;2024-03-08T13:06:02;14.50;56.00
851;DHT22;412;51.400;7.480;2024-03-08T13:08:29;14.10;57.50
851;DHT22;412;51.400;7.480;2024-03-08T13:10:55;14.30;60.30
851;DHT22;412;51.400;7.480;2024-03-08T13:15:48;14.80;59.50
851;DHT22;412;51.400;7.480;2024-03-08T13:18:14;14.80;58.40
851;DHT22;412;51.400;7.480;2024-03-08T13:20:41;14.50;58.10
851;DHT22;412;51.400;7.480;2024-03-08T13:23:09;14.30;58.00
851;DHT22;412;51.400;7.480;2024-03-08T13:25:35;14.30;57.90
851;DHT22;412;51.400;7.480;2024-03-08T13:28:04;13.70;57.90
851;DHT22;412;51.400;7.480;2024-03-08T13:30:31;13.60;59.00
851;DHT22;412;51.400;7.480;2024-03-08T13:32:57;13.70;59.80
851;DHT22;412;51.400;7.480;2024-03-08T13:35:22;14.00;59.80
851;DHT22;412;51.400;7.480;2024-03-08T13:37:59;13.90;59.50
851;DHT22;412;51.400;7.480;2024-03-08T13:40:24;14.00;60.10
851;DHT22;412;51.400;7.480;2024-03-08T13:42:51;14.20;59.30
851;DHT22;412;51.400;7.480;2024-03-08T13:45:17;14.50;59.60
851;DHT22;412;51.400;7.480;2024-03-08T13:47:53;14.50;58.40
851;DHT22;412;51.400;7.480;2024-03-08T13:50:19;14.40;58.10
851;DHT22;412;51.400;7.480;2024-03-08T13:52:49;14.00;57.80
851;DHT22;412;51.400;7.480;2024-03-08T13:55:23;14.00;58.20
851;DHT22;412;51.400;7.480;2024-03-08T13:57:50;14.10;62.00
851;DHT22;412;51.400;7.480;2024-03-08T14:00:17;14.40;61.10
851;DHT22;412;51.400;7.480;2024-03-08T14:02:43;14.60;60.50
851;DHT22;412;51.400;7.480;2024-03-08T14:05:09;14.50;58.70
851;DHT22;412;51.400;7.480;2024-03-08T14:07:36;14.20;57.80
851;DHT22;412;51.400;7.480;2024-03-08T14:10:02;14.20;59.40
851;DHT22;412;51.400;7.480;2024-03-08T14:12:29;14.50;61.30
851;DHT22;412;51.400;7.480;2024-03-08T14:14:55;14.50;59.30
851;DHT22;412;51.400;7.480;2024-03-08T14:17:25;14.60;60.10
851;DHT22;412;51.400;7.480;2024-03-08T14:19:53;14.80;60.10
851;DHT22;412;51.400;7.480;2024-03-08T14:22:20;14.50;58.70
851;DHT22;412;51.400;7.480;2024-03-08T14:24:46;14.40;59.60
851;DHT22;412;51.400;7.480;2024-03-08T14:27:11;14.40;60.00
851;DHT22;412;51.400;7.480;2024-03-08T14:29:38;14.50;59.80
851;DHT22;412;51.400;7.480;2024-03-08T14:32:05;14.70;60.80
851;DHT22;412;51.400;7.480;2024-03-08T14:34:32;14.50;58.20
851;DHT22;412;51.400;7.480;2024-03-08T14:37:00;14.50;58.50
851;DHT22;412;51.400;7.480;2024-03-08T14:39:26;14.60;58.50
851;DHT22;412;51.400;7.480;2024-03-08T14:41:52;14.50;57.60
851;DHT22;412;51.400;7.480;2024-03-08T14:44:20;14.40;58.60
851;DHT22;412;51.400;7.480;2024-03-08T14:46:46;14.50;58.90
851;DHT22;412;51.400;7.480;2024-03-08T14:49:12;14.30;58.10
851;DHT22;412;51.400;7.480;2024-03-08T14:51:38;14.30;58.90
851;DHT22;412;51.400;7.480;2024-03-08T14:54:04;14.40;58.40
851;DHT22;412;51.400;7.480;2024-03-08T14:56:35;14.30;58.50
851;DHT22;412;51.400;7.480;2024-03-08T14:59:01;14.20;57.80
851;DHT22;412;51.400;7.480;2024-03-08T15:01:27;14.00;58.80
851;DHT22;412;51.400;7.480;2024-03-08T15:03:55;14.00;59.30
851;DHT22;412;51.400;7.480;2024-03-08T15:06:21;14.10;58.50
851;DHT22;412;51.400;7.480;2024-03-08T15:08:48;13.90;58.30
851;DHT22;412;51.400;7.480;2024-03-08T15:11:14;13.70;59.00
851;DHT22;412;51.400;7.480;2024-03-08T15:13:51;13.70;64.60
851;DHT22;412;51.400;7.480;2024-03-08T15:16:19;13.80;60.90
851;DHT22;412;51.400;7.480;2024-03-08T15:18:48;13.90;59.80
851;DHT22;412;51.400;7.480;2024-03-08T15:21:14;13.80;58.90
851;DHT22;412;51.400;7.480;2024-03-08T15:23:45;13.60;59.10
851;DHT22;412;51.400;7.480;2024-03-08T15:26:19;13.70;59.60
851;DHT22;412;51.400;7.480;2024-03-08T15:28:45;13.50;58.50
851;DHT22;412;51.400;7.480;2024-03-08T15:31:12;13.40;59.20
851;DHT22;412;51.400;7.480;2024-03-08T15:33:39;13.40;59.30
851;DHT22;412;51.400;7.480;2024-03-08T15:36:17;13.40;60.00
851;DHT22;412;51.400;7.480;2024-03-08T15:38:46;13.40;59.80
851;DHT22;412;51.400;7.480;2024-03-08T15:41:15;13.40;59.60
851;DHT22;412;51.400;7.480;2024-03-08T15:43:43;13.40;59.80
851;DHT22;412;51.400;7.480;2024-03-08T15:46:10;13.40;59.50
851;DHT22;412;51.400;7.480;2024-03-08T15:48:37;13.30;59.90
851;DHT22;412;51.400;7.480;2024-03-08T15:51:03;13.10;59.80
851;DHT22;412;51.400;7.480;2024-03-08T15:53:31;13.20;60.50
851;DHT22;412;51.400;7.480;2024-03-08T15:55:58;13.30;61.60
851;DHT22;412;51.400;7.480;2024-03-08T15:58:24;13.30;61.00
851;DHT22;412;51.400;7.480;2024-03-08T16:00:51;13.10;60.90
851;DHT22;412;51.400;7.480;2024-03-08T16:03:18;12.90;60.80
851;DHT22;412;51.400;7.480;2024-03-08T16:05:46;12.70;60.60
851;DHT22;412;51.400;7.480;2024-03-08T16:08:12;12.70;60.70
851;DHT22;412;51.400;7.480;2024-03-08T16:10:46;12.50;60.70
851;DHT22;412;51.400;7.480;2024-03-08T16:13:17;12.50;62.10
851;DHT22;412;51.400;7.480;2024-03-08T16:15:46;12.50;61.20
851;DHT22;412;51.400;7.480;2024-03-08T16:18:13;12.30;61.60
851;DHT22;412;51.400;7.480;2024-03-08T16:20:39;12.50;62.60
851;DHT22;412;51.400;7.480;2024-03-08T16:23:06;12.60;62.80
851;DHT22;412;51.400;7.480;2024-03-08T16:25:32;12.20;61.70
851;DHT22;412;51.400;7.480;2024-03-08T16:27:58;12.60;61.30
851;DHT22;412;51.400;7.480;2024-03-08T16:30:24;12.60;62.10
851;DHT22;412;51.400;7.480;2024-03-08T16:32:51;12.50;63.10
851;DHT22;412;51.400;7.480;2024-03-08T16:35:20;12.50;62.70
851;DHT22;412;51.400;7.480;2024-03-08T16:37:47;12.40;61.90
851;DHT22;412;51.400;7.480;2024-03-08T16:40:13;12.50;62.00
851;DHT22;412;51.400;7.480;2024-03-08T16:42:43;12.40;62.20
851;DHT22;412;51.400;7.480;2024-03-08T16:45:11;12.20;61.80
851;DHT22;412;51.400;7.480;2024-03-08T16:47:37;12.10;62.40
851;DHT22;412;51.400;7.480;2024-03-08T16:50:04;12.10;62.80
851;DHT22;412;51.400;7.480;2024-03-08T16:52:36;12.10;63.30
851;DHT22;412;51.400;7.480;2024-03-08T16:55:05;11.90;62.70
851;DHT22;412;51.400;7.480;2024-03-08T16:57:40;11.90;64.50
851;DHT22;412;51.400;7.480;2024-03-08T17:00:20;11.90;64.20